KAUO/AUO METAR and TAF weather

Enter ICAO airport designator
Station Type Date Time Source
KAUO METAR 2020/09/27 02:56 UTC NOAA

KAUO 270256Z AUTO 00000KT 10SM BKN050 BKN070 22/19 A3002 RMK AO2 SLP177 T02170189 50006


Station Type Date Time Source
KAUO Decoded METAR 2020/09/27 02:56 UTC NOAA

Auburn-Opelika Airport, AL, United States (KAUO) 32-37N 085-26W
Sep 26, 2020 - 10:56 PM EDT / 2020.09.27 0256 UTC
Wind: Calm:0
Visibility: 10 mile(s):0
Sky conditions: mostly cloudy
Temperature: 71.1 F (21.7 C)
Dew Point: 66.0 F (18.9 C)
Relative Humidity: 84%
Pressure (altimeter): 30.02 in. Hg (1016 hPa)
Pressure tendency: 0.02 inches (0.6 hPa) higher than three hours ago
ob: KAUO 270256Z AUTO 00000KT 10SM BKN050 BKN070 22/19 A3002 RMK AO2 SLP177 T02170189 50006
cycle: 3

Station Type Date Time Source
KAUO TAF UTC NOAA

Error!

Example: see airport list